Terminal Aerodrome Forecast
Issued by NWS Tampa Bay Area, FL

Home | Current Version | Previous Version | Text Only | Print | Product List | Glossary On
Versions: 1 2 3 4 5 6 7 8 9 10 11 12 13 14 15 16 17 18 19 20 21 22 23 24 25 26 27
709
FTUS42 KTBW 260256 AAA
TAFTPA
TAF AMD
KTPA 260256Z 2603/2624 VRB04KT P6SM FEW025 BKN120
     FM260700 VRB03KT P6SM SCT100 SCT250
     FM261400 20004KT P6SM SCT030 SCT100 BKN250
     FM261800 25008KT P6SM VCTS SCT040CB BKN100
     FM262000 29010KT P6SM VCTS BKN040CB OVC080=

USA.gov is the U.S. government's official web portal to all federal, state and local government web resources and services.